Time;durP1;ratioP1;P1;durP2;ratioP2;P2;SDS_P1;SDS_P2;PMS_P1;PMS_P2;Temp;Humidity;BMP_temperature;BMP_pressure;BME280_temperature;BME280_humidity;BME280_pressure;Samples;Min_cycle;Max_cycle;Signal;HPM_P1;HPM_P2
2022/05/02 00:00:34;;;;;;;2.85;2.50;;;22.10;42.70;;;;;;5012776;28;20399;-67
2022/05/02 00:02:59;;;;;;;3.25;2.40;;;22.10;42.80;;;;;;5011845;28;20463;-66
2022/05/02 00:05:27;;;;;;;3.20;2.50;;;22.10;42.90;;;;;;5012943;28;20389;-66
2022/05/02 00:07:54;;;;;;;2.65;2.40;;;22.10;42.70;;;;;;5012139;28;20424;-66
2022/05/02 00:10:20;;;;;;;2.80;2.33;;;22.10;42.90;;;;;;5012717;28;20731;-66
2022/05/02 00:12:46;;;;;;;2.75;2.40;;;22.10;43.20;;;;;;5011308;28;21284;-66
2022/05/02 00:15:12;;;;;;;2.53;2.30;;;22.10;43.60;;;;;;5012788;28;20397;-66
2022/05/02 00:17:56;;;;;;;3.35;2.10;;;22.10;43.20;;;;;;5012869;28;20444;-66
2022/05/02 00:20:23;;;;;;;2.53;2.00;;;22.00;42.80;;;;;;5012863;28;20487;-66
2022/05/02 00:22:49;;;;;;;3.10;2.40;;;22.00;43.10;;;;;;5012160;28;20463;-66
2022/05/02 00:25:15;;;;;;;2.63;2.10;;;22.00;42.90;;;;;;5028252;28;20385;-66
2022/05/02 00:27:42;;;;;;;2.35;2.15;;;22.00;42.70;;;;;;5012580;28;20415;-66
2022/05/02 00:30:10;;;;;;;3.00;2.28;;;22.00;42.70;;;;;;5012496;28;20397;-66
2022/05/02 00:32:36;;;;;;;2.42;2.22;;;22.00;42.80;;;;;;5011933;28;20436;-66
2022/05/02 00:35:04;;;;;;;2.80;2.30;;;22.00;42.90;;;;;;5012411;28;20393;-67
2022/05/02 00:37:30;;;;;;;2.45;2.10;;;22.00;42.90;;;;;;5012847;28;20396;-66
2022/05/02 00:39:56;;;;;;;2.50;2.30;;;22.00;42.90;;;;;;5011745;28;20744;-66
2022/05/02 00:42:22;;;;;;;2.20;2.00;;;22.00;42.80;;;;;;5012201;28;20420;-66
2022/05/02 00:44:48;;;;;;;2.83;2.20;;;22.00;42.70;;;;;;5026917;28;21272;-66
2022/05/02 00:47:17;;;;;;;2.53;2.00;;;22.00;42.70;;;;;;5012096;28;20487;-66
2022/05/02 00:49:43;;;;;;;2.10;1.90;;;21.90;43.00;;;;;;5012129;28;20393;-66
2022/05/02 00:52:09;;;;;;;2.90;2.30;;;21.90;42.60;;;;;;5012136;28;20396;-66
2022/05/02 00:54:35;;;;;;;2.28;2.08;;;21.90;42.80;;;;;;5011914;28;20390;-66
2022/05/02 00:57:01;;;;;;;2.45;2.25;;;21.90;42.80;;;;;;5012153;28;20396;-67
2022/05/02 00:59:28;;;;;;;2.50;2.22;;;21.90;42.80;;;;;;5011962;28;20936;-66
2022/05/02 01:01:54;;;;;;;2.20;2.00;;;21.90;42.80;;;;;;5012045;28;20428;-66
2022/05/02 01:04:19;;;;;;;2.40;2.20;;;21.90;42.70;;;;;;5011916;28;20388;-66
2022/05/02 01:09:32;;;;;;;2.35;2.15;;;21.90;42.80;;;;;;5012489;28;20392;-66
2022/05/02 01:11:57;;;;;;;2.23;2.03;;;21.90;42.80;;;;;;5013425;28;20504;-66
2022/05/02 01:14:23;;;;;;;2.40;2.20;;;21.90;42.80;;;;;;5011935;28;20535;-66
2022/05/02 01:16:49;;;;;;;2.20;2.00;;;21.90;42.70;;;;;;5011318;28;20396;-66
2022/05/02 01:19:15;;;;;;;2.53;2.13;;;21.90;42.70;;;;;;5011788;28;20942;-67
2022/05/02 01:21:44;;;;;;;2.33;2.13;;;21.90;42.70;;;;;;5011956;28;20468;-66
2022/05/02 01:24:10;;;;;;;2.07;1.90;;;21.80;42.70;;;;;;5010448;28;20397;-66
2022/05/02 01:26:37;;;;;;;2.15;1.95;;;21.80;42.90;;;;;;5011287;28;20415;-65
2022/05/02 01:29:03;;;;;;;2.30;2.10;;;21.80;42.90;;;;;;5011629;28;20480;-66
2022/05/02 01:31:29;;;;;;;2.30;2.10;;;21.80;42.60;;;;;;5011701;28;20838;-66
2022/05/02 01:33:55;;;;;;;2.50;2.30;;;21.80;42.80;;;;;;5013979;28;20947;-66
2022/05/02 01:36:22;;;;;;;2.20;2.00;;;21.80;42.80;;;;;;5015697;28;20734;-66
2022/05/02 01:38:48;;;;;;;2.42;2.22;;;21.80;42.70;;;;;;5013467;28;20400;-67
2022/05/02 01:41:14;;;;;;;2.40;2.20;;;21.80;42.80;;;;;;5014005;28;20412;-66
2022/05/02 01:43:40;;;;;;;2.53;2.30;;;21.80;42.80;;;;;;5014292;28;20825;-66
2022/05/02 01:46:08;;;;;;;2.33;2.13;;;21.80;42.80;;;;;;5014700;28;20943;-66
2022/05/02 01:48:34;;;;;;;2.08;1.88;;;21.80;42.80;;;;;;5014938;28;20408;-66
2022/05/02 01:51:00;;;;;;;2.42;2.17;;;21.80;42.90;;;;;;5015450;28;20801;-66
2022/05/02 01:53:26;;;;;;;2.30;2.10;;;21.80;42.90;;;;;;5015412;28;20393;-66
2022/05/02 01:55:52;;;;;;;2.30;2.10;;;21.80;42.70;;;;;;5014264;28;20400;-66
2022/05/02 01:58:18;;;;;;;2.50;2.30;;;21.80;42.60;;;;;;5015504;28;20487;-66
2022/05/02 02:00:44;;;;;;;2.50;2.30;;;21.80;42.70;;;;;;5014688;28;20424;-66
2022/05/02 02:03:10;;;;;;;2.28;2.08;;;21.80;42.70;;;;;;5013991;28;20397;-66
2022/05/02 02:05:51;;;;;;;2.20;2.00;;;21.80;42.70;;;;;;5015204;28;20392;-66
2022/05/02 02:08:27;;;;;;;2.38;2.00;;;21.80;42.80;;;;;;5015076;28;20747;-66
2022/05/02 02:10:58;;;;;;;2.08;1.88;;;21.70;42.70;;;;;;5015366;28;20469;-66
2022/05/02 02:13:24;;;;;;;2.30;2.10;;;21.70;42.60;;;;;;5015062;28;20400;-66
2022/05/02 02:15:50;;;;;;;2.20;2.00;;;21.70;42.70;;;;;;5014875;28;20515;-66
2022/05/02 02:18:16;;;;;;;2.30;2.10;;;21.70;42.60;;;;;;5014919;28;20389;-66
2022/05/02 02:20:44;;;;;;;2.28;2.08;;;21.70;42.60;;;;;;5014289;28;20389;-66
2022/05/02 02:23:10;;;;;;;2.10;1.90;;;21.70;42.60;;;;;;5014787;28;20404;-66
2022/05/02 02:25:37;;;;;;;2.20;2.00;;;21.70;42.60;;;;;;5015358;28;20464;-66
2022/05/02 02:28:03;;;;;;;2.00;1.80;;;21.70;42.60;;;;;;5014744;28;20420;-67
2022/05/02 02:30:29;;;;;;;2.00;1.80;;;21.70;42.60;;;;;;5014506;28;20381;-67
2022/05/02 02:32:56;;;;;;;1.90;1.80;;;21.70;42.60;;;;;;5013083;28;20826;-66
2022/05/02 02:35:22;;;;;;;2.20;2.00;;;21.70;42.60;;;;;;5015450;28;20408;-66
2022/05/02 02:37:48;;;;;;;1.80;1.70;;;21.70;42.80;;;;;;5014669;28;20766;-67
2022/05/02 02:40:15;;;;;;;2.00;1.75;;;21.70;42.60;;;;;;5014273;28;20377;-66
2022/05/02 02:42:40;;;;;;;1.83;1.70;;;21.70;42.60;;;;;;5013936;28;20424;-66
2022/05/02 02:45:07;;;;;;;2.10;1.90;;;21.60;42.60;;;;;;5014295;28;20385;-66
2022/05/02 02:47:33;;;;;;;2.30;2.10;;;21.60;42.70;;;;;;5013095;28;20480;-66
2022/05/02 02:49:58;;;;;;;1.88;1.77;;;21.60;42.50;;;;;;5014528;28;20464;-67
2022/05/02 02:52:24;;;;;;;2.17;1.98;;;21.60;42.60;;;;;;5014381;28;20401;-66
2022/05/02 02:54:50;;;;;;;2.20;1.70;;;21.60;42.60;;;;;;5013765;28;20874;-66
2022/05/02 02:57:15;;;;;;;2.10;1.90;;;21.60;42.60;;;;;;5014164;28;20393;-66
2022/05/02 02:59:41;;;;;;;2.57;2.37;;;21.60;42.60;;;;;;5014233;28;20393;-66
2022/05/02 03:02:07;;;;;;;2.80;2.50;;;21.60;42.60;;;;;;5013965;28;20423;-66
2022/05/02 03:07:18;;;;;;;4.38;2.00;;;21.60;44.10;;;;;;5014677;28;20380;-66
2022/05/02 03:09:44;;;;;;;3.35;2.70;;;21.60;44.80;;;;;;5013908;28;20483;-67
2022/05/02 03:12:10;;;;;;;4.60;3.30;;;21.70;46.20;;;;;;5013700;28;20472;-66
2022/05/02 03:14:36;;;;;;;9.68;3.72;;;21.70;45.90;;;;;;5012431;28;20436;-67
2022/05/02 03:17:02;;;;;;;8.03;3.10;;;21.80;47.60;;;;;;5012312;28;20872;-66
2022/05/02 03:19:27;;;;;;;9.43;3.03;;;21.80;48.20;;;;;;5013832;28;20480;-66
2022/05/02 03:21:54;;;;;;;4.47;2.95;;;21.80;48.10;;;;;;5013620;28;20428;-67
2022/05/02 03:24:19;;;;;;;5.55;2.83;;;21.90;48.30;;;;;;5013610;28;20389;-66
2022/05/02 03:26:45;;;;;;;4.37;2.70;;;21.90;47.90;;;;;;5011826;28;20950;-66
2022/05/02 03:29:10;;;;;;;6.03;2.60;;;21.90;47.70;;;;;;5012203;28;20389;-68
2022/05/02 03:31:36;;;;;;;5.83;2.50;;;21.90;47.70;;;;;;5013506;28;20404;-67
2022/05/02 03:34:02;;;;;;;9.35;2.75;;;21.90;47.90;;;;;;5013236;28;20389;-67
2022/05/02 03:36:29;;;;;;;5.70;2.60;;;21.90;48.10;;;;;;5013464;28;20447;-67
2022/05/02 03:38:55;;;;;;;4.18;2.50;;;21.90;48.30;;;;;;5012788;28;20385;-66
2022/05/02 03:41:21;;;;;;;6.00;2.60;;;22.00;47.90;;;;;;5011973;28;20413;-66
2022/05/02 03:43:47;;;;;;;6.40;2.60;;;22.00;46.70;;;;;;5013178;28;20397;-66
2022/05/02 03:46:12;;;;;;;5.57;2.77;;;22.00;48.10;;;;;;5013197;28;20963;-66
2022/05/02 03:48:38;;;;;;;4.85;2.38;;;22.00;47.50;;;;;;5012861;28;20399;-66
2022/05/02 03:51:04;;;;;;;6.63;2.50;;;22.10;47.50;;;;;;5012976;28;20409;-66
2022/05/02 03:53:29;;;;;;;4.72;2.42;;;22.10;47.30;;;;;;5011935;28;20389;-65
2022/05/02 03:55:55;;;;;;;3.90;2.50;;;22.10;46.90;;;;;;5011932;28;20479;-66
2022/05/02 03:58:21;;;;;;;5.65;2.60;;;22.00;46.70;;;;;;5012276;28;20389;-66
2022/05/02 04:00:47;;;;;;;3.97;2.30;;;21.90;46.60;;;;;;5011673;28;20471;-66
2022/05/02 04:03:13;;;;;;;5.65;2.50;;;21.90;46.20;;;;;;5012655;28;20404;-66
2022/05/02 04:05:39;;;;;;;6.03;2.30;;;21.90;46.30;;;;;;5012751;28;20459;-66
2022/05/02 04:08:05;;;;;;;3.35;2.40;;;21.90;46.00;;;;;;5012390;28;20396;-67
2022/05/02 04:10:30;;;;;;;3.28;2.35;;;21.90;45.60;;;;;;5012342;28;20401;-67
2022/05/02 04:12:56;;;;;;;3.87;2.40;;;21.90;45.70;;;;;;5011238;28;20969;-66
2022/05/02 04:15:21;;;;;;;5.75;2.33;;;21.90;46.10;;;;;;5012557;28;20403;-66
2022/05/02 04:17:47;;;;;;;4.28;2.30;;;21.80;45.60;;;;;;5012660;28;20401;-66
2022/05/02 04:20:13;;;;;;;3.60;2.10;;;21.80;45.80;;;;;;5012691;28;20388;-66
2022/05/02 04:22:41;;;;;;;3.72;2.20;;;21.80;45.60;;;;;;5012298;28;20417;-66
2022/05/02 04:25:07;;;;;;;3.38;2.00;;;21.80;45.00;;;;;;5012494;28;20464;-66
2022/05/02 04:27:33;;;;;;;4.50;2.22;;;21.80;45.20;;;;;;5012516;28;21152;-66
2022/05/02 04:30:00;;;;;;;5.30;2.20;;;21.80;45.10;;;;;;5012444;28;20849;-66
2022/05/02 04:32:26;;;;;;;3.47;2.40;;;21.80;45.10;;;;;;5015368;28;20389;-66
2022/05/02 04:34:54;;;;;;;4.88;2.60;;;21.80;45.30;;;;;;5006568;28;20391;-66
2022/05/02 04:37:19;;;;;;;5.95;4.25;;;21.80;44.90;;;;;;5011270;28;20900;-66
2022/05/02 04:39:45;;;;;;;6.63;5.53;;;21.80;45.00;;;;;;5008000;28;20472;-66
2022/05/02 04:42:11;;;;;;;7.35;4.90;;;21.80;45.30;;;;;;5025564;28;20463;-67
2022/05/02 04:44:37;;;;;;;9.47;4.20;;;21.80;45.00;;;;;;5012047;28;20384;-66
2022/05/02 04:47:02;;;;;;;5.55;3.72;;;21.70;45.00;;;;;;5026669;28;20406;-67
2022/05/02 04:49:28;;;;;;;6.45;4.32;;;21.70;45.10;;;;;;5031676;28;20494;-67
2022/05/02 04:51:54;;;;;;;9.50;4.60;;;21.80;45.70;;;;;;5031763;28;20398;-68
2022/05/02 04:54:19;;;;;;;12.90;4.38;;;21.80;45.50;;;;;;5030312;28;20756;-67
2022/05/02 04:56:45;;;;;;;10.63;4.77;;;21.80;46.30;;;;;;5031304;28;20477;-67
2022/05/02 04:59:11;;;;;;;10.82;5.68;;;21.90;47.00;;;;;;5031560;28;20452;-68
2022/05/02 05:01:36;;;;;;;10.57;5.77;;;21.90;47.90;;;;;;5031608;28;20755;-68
2022/05/02 05:04:02;;;;;;;11.65;5.70;;;22.00;47.60;;;;;;5031338;28;20528;-66
2022/05/02 05:06:28;;;;;;;8.90;5.30;;;22.00;47.20;;;;;;5031519;28;20379;-68
2022/05/02 05:08:53;;;;;;;7.95;4.97;;;22.00;46.90;;;;;;5030141;28;20395;-67
2022/05/02 05:11:40;;;;;;;9.13;4.60;;;22.10;47.10;;;;;;5031371;28;20879;-68
2022/05/02 05:17:19;;;;;;;9.13;4.60;;;22.00;46.80;;;;;;5028340;28;20383;-67
2022/05/02 05:19:59;;;;;;;8.52;4.22;;;22.00;46.90;;;;;;5007702;28;20753;-67
2022/05/02 05:22:49;;;;;;;6.65;4.35;;;22.00;46.80;;;;;;5009990;28;20421;-67
2022/05/02 05:25:32;;;;;;;6.28;4.22;;;21.90;46.50;;;;;;5008462;28;20476;-68
2022/05/02 05:28:15;;;;;;;5.30;4.00;;;21.90;46.40;;;;;;5010312;28;20719;-65
2022/05/02 05:30:44;;;;;;;6.88;4.45;;;21.90;46.40;;;;;;5011093;28;20431;-65
2022/05/02 05:33:26;;;;;;;5.80;4.40;;;21.90;45.70;;;;;;5010928;28;20396;-65
2022/05/02 05:36:22;;;;;;;5.97;4.05;;;21.90;46.50;;;;;;5011173;28;20393;-65
2022/05/02 05:39:11;;;;;;;6.50;4.00;;;21.80;45.70;;;;;;5010757;28;20473;-65
2022/05/02 05:42:08;;;;;;;5.70;4.07;;;21.80;45.50;;;;;;5011183;28;20419;-64
2022/05/02 05:44:42;;;;;;;6.53;4.03;;;21.80;45.50;;;;;;4991596;28;20455;-64
2022/05/02 05:47:23;;;;;;;5.32;4.18;;;21.80;45.50;;;;;;5010852;28;20943;-65
2022/05/02 05:50:03;;;;;;;5.28;3.60;;;21.80;46.10;;;;;;5011085;28;20389;-64
2022/05/02 05:52:49;;;;;;;5.40;3.83;;;21.80;45.50;;;;;;5011298;28;20395;-68
2022/05/02 05:55:44;;;;;;;4.97;3.78;;;21.80;45.20;;;;;;5010999;28;20893;-66
2022/05/02 05:58:45;;;;;;;5.10;3.72;;;21.80;45.30;;;;;;5008346;28;20396;-65
2022/05/02 06:01:14;;;;;;;6.03;3.60;;;21.80;45.20;;;;;;5010902;28;20507;-65
2022/05/02 06:03:58;;;;;;;4.82;3.50;;;21.80;44.90;;;;;;5011172;28;20950;-65
2022/05/02 06:06:27;;;;;;;5.47;3.70;;;21.70;44.80;;;;;;5010994;28;20908;-66
2022/05/02 06:08:56;;;;;;;4.18;3.30;;;21.70;44.80;;;;;;5010471;28;20400;-65
2022/05/02 06:11:24;;;;;;;5.00;3.63;;;21.70;44.90;;;;;;5010763;28;20443;-66
2022/05/02 06:13:53;;;;;;;4.28;3.47;;;21.70;44.70;;;;;;5010839;28;20404;-67
2022/05/02 06:19:11;;;;;;;3.88;3.25;;;21.70;44.50;;;;;;5011493;28;20483;-66
2022/05/02 06:21:42;;;;;;;3.60;3.30;;;21.70;44.60;;;;;;5013463;28;20475;-66
2022/05/02 06:24:11;;;;;;;6.97;3.60;;;21.70;44.70;;;;;;5013340;28;20758;-66
2022/05/02 06:26:38;;;;;;;5.88;3.55;;;21.70;45.30;;;;;;5014609;28;20392;-66
2022/05/02 06:29:09;;;;;;;6.35;3.10;;;21.70;44.80;;;;;;5013065;28;20400;-66
2022/05/02 06:31:44;;;;;;;4.38;3.22;;;21.70;45.00;;;;;;5014603;28;20404;-66
2022/05/02 06:34:11;;;;;;;4.15;3.00;;;21.70;44.80;;;;;;5014241;28;20381;-66
2022/05/02 06:36:55;;;;;;;4.95;3.30;;;21.70;44.80;;;;;;5014444;28;20401;-66
2022/05/02 06:39:34;;;;;;;4.38;3.38;;;21.70;44.60;;;;;;5014031;28;20737;-66
2022/05/02 06:42:12;;;;;;;5.03;3.08;;;21.70;44.70;;;;;;5014182;28;20448;-66
2022/05/02 06:45:08;;;;;;;5.10;3.25;;;21.70;44.80;;;;;;5014172;28;20459;-66
2022/05/02 06:47:55;;;;;;;4.10;3.35;;;21.70;44.60;;;;;;5012957;28;20400;-65
2022/05/02 06:50:24;;;;;;;3.63;2.90;;;21.70;44.50;;;;;;5011871;28;20397;-66
2022/05/02 06:53:04;;;;;;;4.90;2.90;;;21.70;44.80;;;;;;5013802;28;20405;-66
2022/05/02 06:55:42;;;;;;;3.85;3.03;;;21.70;45.30;;;;;;5013973;28;20882;-66
2022/05/02 06:58:29;;;;;;;4.75;3.30;;;21.70;45.20;;;;;;5012511;28;20892;-68
2022/05/02 07:01:10;;;;;;;5.47;3.17;;;21.70;45.30;;;;;;5013213;28;20389;-68
2022/05/02 07:03:41;;;;;;;4.35;2.85;;;21.70;45.80;;;;;;5012689;28;20895;-68
2022/05/02 07:06:17;;;;;;;4.88;2.85;;;21.60;45.20;;;;;;5013686;28;20463;-67
2022/05/02 07:08:55;;;;;;;6.07;4.25;;;21.60;45.60;;;;;;5013790;28;20393;-67
2022/05/02 07:11:28;;;;;;;10.10;7.40;;;21.70;47.70;;;;;;5012456;28;20966;-68
2022/05/02 07:14:12;;;;;;;5.80;4.50;;;21.70;47.30;;;;;;5013692;28;20397;-68
2022/05/02 07:16:49;;;;;;;8.30;4.45;;;21.70;47.30;;;;;;5013532;28;20408;-68
2022/05/02 07:19:26;;;;;;;6.47;4.22;;;21.80;47.60;;;;;;5013124;28;20401;-67
2022/05/02 07:22:02;;;;;;;6.32;3.75;;;21.80;48.40;;;;;;5011631;28;20503;-68
2022/05/02 07:24:55;;;;;;;6.07;3.60;;;21.80;46.70;;;;;;5013549;28;20389;-67
2022/05/02 07:27:43;;;;;;;4.00;3.22;;;21.80;46.00;;;;;;5013520;28;20397;-67
2022/05/02 07:30:10;;;;;;;5.25;3.50;;;21.80;46.10;;;;;;5011532;28;20497;-68
2022/05/02 07:32:36;;;;;;;5.93;3.15;;;21.80;47.00;;;;;;5013107;28;20400;-68
2022/05/02 07:35:02;;;;;;;4.75;3.00;;;21.80;47.60;;;;;;5011722;28;20908;-67
2022/05/02 07:37:31;;;;;;;5.35;2.90;;;21.80;47.00;;;;;;5013086;28;20480;-67
2022/05/02 07:39:58;;;;;;;6.40;3.08;;;21.80;46.50;;;;;;5012794;28;20392;-66
2022/05/02 07:42:25;;;;;;;4.05;2.67;;;21.80;46.20;;;;;;5008925;28;20434;-65
2022/05/02 07:44:54;;;;;;;4.13;3.13;;;21.80;45.60;;;;;;4995160;28;20438;-66
2022/05/02 07:47:22;;;;;;;4.50;3.40;;;21.80;46.10;;;;;;5011687;28;20417;-65
2022/05/02 07:49:50;;;;;;;4.13;2.92;;;21.80;48.30;;;;;;5011546;28;20392;-66
2022/05/02 07:52:24;;;;;;;4.68;2.67;;;21.80;47.60;;;;;;5011393;28;20928;-67
2022/05/02 07:54:52;;;;;;;4.45;2.55;;;21.80;47.90;;;;;;5012979;28;20410;-67
2022/05/02 07:57:20;;;;;;;4.68;2.50;;;21.80;45.90;;;;;;5011610;28;20460;-73
2022/05/02 07:59:51;;;;;;;3.17;2.70;;;21.80;46.00;;;;;;5012861;28;20408;-72
2022/05/02 08:02:19;;;;;;;4.20;2.67;;;21.80;46.00;;;;;;5012786;28;20416;-67
2022/05/02 08:04:45;;;;;;;8.57;2.80;;;21.80;47.70;;;;;;5012392;28;20392;-68
2022/05/02 08:07:32;;;;;;;3.70;2.47;;;21.80;47.90;;;;;;5012280;28;20442;-67
2022/05/02 08:09:57;;;;;;;4.85;2.63;;;21.90;48.20;;;;;;5010525;28;20409;-67
2022/05/02 08:12:41;;;;;;;4.07;2.60;;;21.90;47.80;;;;;;5003076;28;20542;-67
2022/05/02 08:15:22;;;;;;;3.13;2.50;;;21.90;47.60;;;;;;5003986;28;20885;-68
2022/05/02 08:18:23;;;;;;;3.78;2.58;;;21.90;47.30;;;;;;5000245;28;20400;-67
2022/05/02 08:20:59;;;;;;;3.30;2.53;;;21.90;46.80;;;;;;5000334;28;20476;-67
2022/05/02 08:27:17;;;;;;;3.28;2.55;;;21.90;45.80;;;;;;5006910;28;20388;-68
2022/05/02 08:30:06;;;;;;;3.07;2.27;;;21.90;45.60;;;;;;5012230;28;20393;-68
2022/05/02 08:33:12;;;;;;;3.10;2.42;;;21.90;46.00;;;;;;5012303;28;20435;-68
2022/05/02 08:36:00;;;;;;;3.05;2.20;;;21.90;46.20;;;;;;4931998;29;20506;-68
2022/05/02 08:38:41;;;;;;;2.67;2.40;;;21.90;46.20;;;;;;5005143;28;20766;-71
2022/05/02 08:41:28;;;;;;;2.80;2.40;;;21.90;45.10;;;;;;5011396;28;20413;-66
2022/05/02 08:44:37;;;;;;;2.85;2.40;;;21.90;44.80;;;;;;5011531;28;20432;-65
2022/05/02 08:47:23;;;;;;;3.55;2.25;;;21.90;45.00;;;;;;5011570;28;21095;-68
2022/05/02 08:50:08;;;;;;;2.70;2.30;;;21.90;44.80;;;;;;5011726;28;20789;-65
2022/05/02 08:52:45;;;;;;;2.33;2.10;;;21.90;44.70;;;;;;5011987;28;20380;-66
2022/05/02 08:55:37;;;;;;;2.65;2.20;;;21.90;44.90;;;;;;5010117;28;20451;-63
2022/05/02 08:58:26;;;;;;;3.17;2.45;;;21.90;44.80;;;;;;4981373;28;20967;-72
2022/05/02 09:01:27;;;;;;;3.33;2.47;;;21.90;44.70;;;;;;5011458;28;20718;-67
2022/05/02 09:04:34;;;;;;;2.80;2.30;;;21.90;44.80;;;;;;5010349;28;20401;-67
2022/05/02 09:07:34;;;;;;;3.20;2.20;;;21.90;44.80;;;;;;5011256;28;20437;-68
2022/05/02 09:10:05;;;;;;;3.53;2.60;;;21.90;44.60;;;;;;5010104;28;20410;-62
2022/05/02 09:13:07;;;;;;;2.97;2.45;;;21.90;44.50;;;;;;4992079;28;20406;-61
2022/05/02 09:15:54;;;;;;;3.92;2.38;;;21.90;44.40;;;;;;4992008;28;20394;-60
2022/05/02 09:18:42;;;;;;;3.17;2.50;;;21.90;44.50;;;;;;4991808;28;20418;-57
2022/05/02 09:21:44;;;;;;;4.70;2.35;;;21.90;44.30;;;;;;4991393;28;20433;-58
2022/05/02 09:24:15;;;;;;;4.50;2.70;;;21.90;44.10;;;;;;4991954;28;20389;-59
2022/05/02 09:26:44;;;;;;;2.90;2.35;;;21.90;44.20;;;;;;4991530;28;20395;-59
2022/05/02 09:29:28;;;;;;;4.25;2.20;;;21.90;44.20;;;;;;4991251;28;20934;-59
2022/05/02 09:32:38;;;;;;;2.92;2.30;;;21.90;44.20;;;;;;4990362;28;20831;-56
2022/05/02 09:35:05;;;;;;;3.38;2.50;;;21.90;44.20;;;;;;4972085;28;20502;-58
2022/05/02 09:37:47;;;;;;;2.90;2.60;;;21.90;44.20;;;;;;4991735;28;20386;-58
2022/05/02 09:40:17;;;;;;;3.38;2.70;;;21.90;44.20;;;;;;4988203;28;20469;-65
2022/05/02 09:43:06;;;;;;;3.10;2.80;;;21.90;44.10;;;;;;4991730;28;20418;-63
2022/05/02 09:52:02;;;;;;;3.80;3.00;;;21.90;44.30;;;;;;4991757;28;20533;-60
2022/05/02 09:58:29;;;;;;;5.18;3.15;;;22.00;44.20;;;;;;4982577;28;20414;-61
2022/05/02 10:01:13;;;;;;;4.15;2.83;;;22.00;44.30;;;;;;4987480;28;20415;-63
2022/05/02 10:03:54;;;;;;;4.10;2.80;;;22.00;44.20;;;;;;4976010;28;20912;-62
2022/05/02 10:06:41;;;;;;;3.55;2.90;;;22.00;44.20;;;;;;4975975;28;20475;-60
2022/05/02 10:09:36;;;;;;;3.55;3.17;;;22.00;44.10;;;;;;4975432;28;20392;-59
2022/05/02 10:12:22;;;;;;;3.73;3.17;;;22.00;44.00;;;;;;4991097;28;20410;-61
2022/05/02 10:14:50;;;;;;;3.65;3.20;;;22.00;44.10;;;;;;4995147;28;20775;-60
2022/05/02 10:17:38;;;;;;;3.30;3.00;;;22.00;44.00;;;;;;4994284;28;20386;-61
2022/05/02 10:20:16;;;;;;;4.27;3.10;;;22.00;44.10;;;;;;4994578;28;20402;-60
2022/05/02 10:22:54;;;;;;;3.47;3.17;;;22.00;44.10;;;;;;4993588;28;20782;-59
2022/05/02 10:25:28;;;;;;;4.20;3.03;;;22.00;44.20;;;;;;4994565;28;20387;-59
2022/05/02 10:28:18;;;;;;;3.75;3.30;;;22.00;44.10;;;;;;4993542;28;20402;-60
2022/05/02 10:31:13;;;;;;;5.05;3.08;;;22.00;44.30;;;;;;4994977;28;20933;-59
2022/05/02 10:33:51;;;;;;;3.92;2.70;;;22.10;44.50;;;;;;5003918;28;20415;-60
2022/05/02 10:36:20;;;;;;;3.80;2.90;;;22.00;44.10;;;;;;5017531;28;20425;-60
2022/05/02 10:38:55;;;;;;;4.57;2.90;;;22.10;44.30;;;;;;5033676;28;20398;-59
2022/05/02 10:41:37;;;;;;;3.83;2.67;;;22.10;44.00;;;;;;5033854;28;20419;-60
2022/05/02 10:44:04;;;;;;;3.63;2.50;;;22.10;44.10;;;;;;5034074;28;20379;-59
2022/05/02 10:46:32;;;;;;;6.60;3.00;;;22.10;43.90;;;;;;5034081;28;20879;-61
2022/05/02 10:49:30;;;;;;;5.47;3.05;;;22.10;44.20;;;;;;5033703;28;20398;-61
2022/05/02 10:52:19;;;;;;;4.28;2.92;;;22.10;44.20;;;;;;5017886;28;20399;-62
2022/05/02 10:55:07;;;;;;;4.00;3.08;;;22.10;44.20;;;;;;5033727;28;20391;-62
2022/05/02 10:58:00;;;;;;;3.85;2.92;;;22.10;44.20;;;;;;5033947;28;20399;-62
2022/05/02 11:00:26;;;;;;;5.65;3.30;;;22.10;44.40;;;;;;5031940;28;21029;-62
2022/05/02 11:03:34;;;;;;;3.72;3.08;;;22.10;44.10;;;;;;5033487;28;20466;-61
2022/05/02 11:06:09;;;;;;;3.75;3.15;;;22.10;44.40;;;;;;5024118;28;20395;-61
2022/05/02 11:08:53;;;;;;;4.63;3.25;;;22.10;44.40;;;;;;5033688;28;20743;-63
2022/05/02 11:11:46;;;;;;;3.58;3.28;;;22.10;44.30;;;;;;5033092;28;20414;-61
2022/05/02 11:14:30;;;;;;;3.78;3.40;;;22.10;44.40;;;;;;5033590;28;20816;-62
2022/05/02 11:17:03;;;;;;;3.95;2.88;;;22.10;44.40;;;;;;5033608;28;20414;-62
2022/05/02 11:22:39;;;;;;;3.78;3.30;;;22.20;44.50;;;;;;5016930;28;20420;-61
2022/05/02 11:25:17;;;;;;;3.38;3.05;;;22.20;44.40;;;;;;5012802;28;20519;-61
2022/05/02 11:28:03;;;;;;;3.45;3.15;;;22.20;44.30;;;;;;5013055;28;20753;-64
2022/05/02 11:30:53;;;;;;;3.83;3.40;;;22.20;44.20;;;;;;5013181;28;20423;-64
2022/05/02 11:33:27;;;;;;;3.58;3.28;;;22.20;44.40;;;;;;5012649;28;20949;-60
2022/05/02 11:36:00;;;;;;;4.13;3.15;;;22.20;44.20;;;;;;5012960;28;20401;-59
2022/05/02 11:38:45;;;;;;;3.53;3.15;;;22.20;44.20;;;;;;5013089;28;20479;-60
2022/05/02 11:41:21;;;;;;;3.70;3.40;;;22.30;44.20;;;;;;5012423;28;20719;-58
2022/05/02 11:43:48;;;;;;;4.30;3.10;;;22.30;44.20;;;;;;5012979;28;20852;-59
2022/05/02 11:46:24;;;;;;;3.92;3.45;;;22.30;44.30;;;;;;5012636;28;20471;-59
2022/05/02 11:49:20;;;;;;;3.90;3.47;;;22.30;44.20;;;;;;5013197;28;20435;-61
2022/05/02 11:51:47;;;;;;;4.53;3.50;;;22.30;44.10;;;;;;5012696;28;20400;-63
2022/05/02 11:54:28;;;;;;;4.60;3.10;;;22.20;44.30;;;;;;5012864;28;20388;-62
2022/05/02 11:57:17;;;;;;;4.70;4.13;;;22.20;44.20;;;;;;5011243;28;20411;-61
2022/05/02 12:00:05;;;;;;;4.57;3.90;;;22.30;44.30;;;;;;5012498;28;20897;-60
2022/05/02 12:02:55;;;;;;;4.65;4.03;;;22.30;44.00;;;;;;5012552;28;20889;-63
2022/05/02 12:05:23;;;;;;;5.22;3.60;;;22.30;44.10;;;;;;5012471;28;20588;-61
2022/05/02 12:08:08;;;;;;;7.50;3.40;;;22.40;44.10;;;;;;5013753;28;20410;-62
2022/05/02 12:10:34;;;;;;;6.40;3.50;;;22.30;44.60;;;;;;5004957;28;20410;-62
2022/05/02 12:13:01;;;;;;;5.22;3.30;;;22.40;44.60;;;;;;5002867;28;20385;-61
2022/05/02 12:15:27;;;;;;;5.65;3.60;;;22.30;43.80;;;;;;5005764;28;20400;-60
2022/05/02 12:17:54;;;;;;;6.18;3.63;;;22.40;44.70;;;;;;4998500;28;20934;-60
2022/05/02 12:20:29;;;;;;;6.80;5.18;;;22.40;44.30;;;;;;5000055;28;20401;-62
2022/05/02 12:23:18;;;;;;;7.68;5.25;;;22.40;43.90;;;;;;5000666;28;21004;-61
2022/05/02 12:25:56;;;;;;;6.28;4.93;;;22.40;43.90;;;;;;5015993;28;20483;-60
2022/05/02 12:28:41;;;;;;;7.07;4.90;;;22.40;43.90;;;;;;5001046;28;20405;-60
2022/05/02 12:31:08;;;;;;;5.15;4.50;;;22.40;44.00;;;;;;5001742;28;20817;-61
2022/05/02 12:33:40;;;;;;;5.55;4.55;;;22.40;44.10;;;;;;5001832;28;20404;-60
2022/05/02 12:36:18;;;;;;;6.18;4.22;;;22.40;44.10;;;;;;5001808;28;20402;-63
2022/05/02 12:38:49;;;;;;;6.53;4.35;;;22.30;43.90;;;;;;5022691;28;20483;-60
2022/05/02 12:41:22;;;;;;;6.38;4.10;;;22.40;44.30;;;;;;5001554;28;20424;-60
2022/05/02 12:43:53;;;;;;;8.27;4.23;;;22.30;44.70;;;;;;5002193;28;20401;-60
2022/05/02 12:46:26;;;;;;;6.82;4.20;;;22.40;44.60;;;;;;5000606;28;20386;-60
2022/05/02 12:48:59;;;;;;;8.48;4.00;;;22.40;44.50;;;;;;4999790;28;20434;-60
2022/05/02 12:51:28;;;;;;;6.80;3.80;;;22.50;44.50;;;;;;4999623;28;20389;-62
2022/05/02 12:54:14;;;;;;;6.22;4.03;;;22.40;44.10;;;;;;5003671;28;20389;-60
2022/05/02 13:02:43;;;;;;;6.00;3.70;;;22.50;44.10;;;;;;4994219;28;20461;-60
2022/05/02 13:05:17;;;;;;;7.15;3.80;;;22.50;44.00;;;;;;5000530;28;20400;-60
2022/05/02 13:07:47;;;;;;;6.15;3.78;;;22.50;44.10;;;;;;5004617;28;20397;-60
2022/05/02 13:10:17;;;;;;;6.45;3.60;;;22.60;44.00;;;;;;4995781;28;20441;-61
2022/05/02 13:12:58;;;;;;;5.55;3.63;;;22.60;43.80;;;;;;5001218;28;20401;-60
2022/05/02 13:15:33;;;;;;;6.28;3.83;;;22.60;44.40;;;;;;5000988;28;20910;-61
2022/05/02 13:18:01;;;;;;;6.07;3.65;;;22.60;43.90;;;;;;5003936;28;20635;-61
2022/05/02 13:20:29;;;;;;;6.03;3.70;;;22.60;43.70;;;;;;5016716;28;20892;-61
2022/05/02 13:23:03;;;;;;;5.20;3.67;;;22.60;43.80;;;;;;5020302;28;20489;-63
2022/05/02 13:26:06;;;;;;;4.60;3.40;;;22.60;43.80;;;;;;5011132;28;20388;-63
2022/05/02 13:29:09;;;;;;;4.60;3.30;;;22.60;43.80;;;;;;5010712;28;20397;-61
2022/05/02 13:31:44;;;;;;;5.57;3.78;;;22.60;43.80;;;;;;5005566;28;20399;-61
2022/05/02 13:34:29;;;;;;;4.00;3.38;;;22.60;43.80;;;;;;4992004;28;20390;-60
2022/05/02 13:37:13;;;;;;;5.68;3.60;;;22.60;43.80;;;;;;4991891;28;20394;-61
2022/05/02 13:40:02;;;;;;;4.15;3.40;;;22.60;43.80;;;;;;4991575;28;20396;-61
2022/05/02 13:42:40;;;;;;;3.83;3.20;;;22.60;43.60;;;;;;4971665;28;20418;-61
2022/05/02 13:45:19;;;;;;;4.15;3.22;;;22.60;43.50;;;;;;4990379;28;20871;-61
2022/05/02 13:48:27;;;;;;;4.03;3.28;;;22.60;43.40;;;;;;4990461;28;20399;-61
2022/05/02 13:51:35;;;;;;;4.18;3.20;;;22.60;43.50;;;;;;5001177;28;20428;-63
2022/05/02 13:54:04;;;;;;;5.47;3.70;;;22.60;43.40;;;;;;4966422;28;20456;-61
2022/05/02 13:56:43;;;;;;;5.35;3.80;;;22.60;43.30;;;;;;5001983;28;20476;-62